sensor_id;sensor_type;location;lat;lon;timestamp;temperature;humidity
41876;DHT22;27555;50.808;4.402;2023-06-14T00:01:46;21.90;80.90
41876;DHT22;27555;50.808;4.402;2023-06-14T00:04:13;21.80;81.20
41876;DHT22;27555;50.808;4.402;2023-06-14T00:06:39;21.70;81.10
41876;DHT22;27555;50.808;4.402;2023-06-14T00:09:06;21.80;80.80
41876;DHT22;27555;50.808;4.402;2023-06-14T00:11:33;21.80;81.30
41876;DHT22;27555;50.808;4.402;2023-06-14T00:13:59;21.80;80.90
41876;DHT22;27555;50.808;4.402;2023-06-14T00:16:25;21.80;80.90
41876;DHT22;27555;50.808;4.402;2023-06-14T00:18:50;21.70;81.00
41876;DHT22;27555;50.808;4.402;2023-06-14T00:21:19;21.70;81.40
41876;DHT22;27555;50.808;4.402;2023-06-14T00:23:45;21.60;81.60
41876;DHT22;27555;50.808;4.402;2023-06-14T00:26:11;21.60;81.60
41876;DHT22;27555;50.808;4.402;2023-06-14T00:28:36;21.50;81.60
41876;DHT22;27555;50.808;4.402;2023-06-14T00:31:02;21.50;82.00
41876;DHT22;27555;50.808;4.402;2023-06-14T00:33:28;21.50;82.00
41876;DHT22;27555;50.808;4.402;2023-06-14T00:35:53;21.50;82.00
41876;DHT22;27555;50.808;4.402;2023-06-14T00:38:23;21.50;81.90
41876;DHT22;27555;50.808;4.402;2023-06-14T00:40:48;21.40;82.20
41876;DHT22;27555;50.808;4.402;2023-06-14T00:43:15;21.40;82.30
41876;DHT22;27555;50.808;4.402;2023-06-14T00:45:41;21.30;82.50
41876;DHT22;27555;50.808;4.402;2023-06-14T00:48:07;21.20;82.40
41876;DHT22;27555;50.808;4.402;2023-06-14T00:50:34;21.20;82.70
41876;DHT22;27555;50.808;4.402;2023-06-14T00:53:01;21.20;83.00
41876;DHT22;27555;50.808;4.402;2023-06-14T00:55:27;21.20;83.00
41876;DHT22;27555;50.808;4.402;2023-06-14T00:57:54;21.20;83.00
41876;DHT22;27555;50.808;4.402;2023-06-14T01:00:21;21.20;82.80
41876;DHT22;27555;50.808;4.402;2023-06-14T01:02:46;21.10;83.00
41876;DHT22;27555;50.808;4.402;2023-06-14T01:05:14;21.10;83.10
41876;DHT22;27555;50.808;4.402;2023-06-14T01:13:45;20.90;83.50
41876;DHT22;27555;50.808;4.402;2023-06-14T01:16:12;21.00;83.30
41876;DHT22;27555;50.808;4.402;2023-06-14T01:18:38;20.90;83.60
41876;DHT22;27555;50.808;4.402;2023-06-14T01:21:04;20.90;83.40
41876;DHT22;27555;50.808;4.402;2023-06-14T01:23:32;20.80;83.70
41876;DHT22;27555;50.808;4.402;2023-06-14T01:25:58;20.70;84.00
41876;DHT22;27555;50.808;4.402;2023-06-14T01:28:26;20.80;84.40
41876;DHT22;27555;50.808;4.402;2023-06-14T01:30:58;20.80;84.00
41876;DHT22;27555;50.808;4.402;2023-06-14T01:33:29;20.80;84.20
41876;DHT22;27555;50.808;4.402;2023-06-14T01:35:56;20.80;84.20
41876;DHT22;27555;50.808;4.402;2023-06-14T01:38:24;20.60;84.30
41876;DHT22;27555;50.808;4.402;2023-06-14T01:40:51;20.60;84.50
41876;DHT22;27555;50.808;4.402;2023-06-14T01:43:19;20.60;84.40
41876;DHT22;27555;50.808;4.402;2023-06-14T01:45:47;20.60;84.40
41876;DHT22;27555;50.808;4.402;2023-06-14T01:48:14;20.40;84.80
41876;DHT22;27555;50.808;4.402;2023-06-14T01:50:41;20.30;85.10
41876;DHT22;27555;50.808;4.402;2023-06-14T01:53:08;20.40;85.10
41876;DHT22;27555;50.808;4.402;2023-06-14T01:55:34;20.40;85.00
41876;DHT22;27555;50.808;4.402;2023-06-14T01:58:03;20.40;84.80
41876;DHT22;27555;50.808;4.402;2023-06-14T02:00:29;20.50;84.60
41876;DHT22;27555;50.808;4.402;2023-06-14T02:02:54;20.40;83.80
41876;DHT22;27555;50.808;4.402;2023-06-14T02:05:21;20.40;83.40
41876;DHT22;27555;50.808;4.402;2023-06-14T02:07:46;20.50;80.90
41876;DHT22;27555;50.808;4.402;2023-06-14T02:10:12;20.50;81.20
41876;DHT22;27555;50.808;4.402;2023-06-14T02:12:38;20.50;82.40
41876;DHT22;27555;50.808;4.402;2023-06-14T02:15:04;20.50;82.60
41876;DHT22;27555;50.808;4.402;2023-06-14T02:17:31;20.60;82.70
41876;DHT22;27555;50.808;4.402;2023-06-14T02:19:56;20.60;81.80
41876;DHT22;27555;50.808;4.402;2023-06-14T02:22:25;20.50;82.40
41876;DHT22;27555;50.808;4.402;2023-06-14T02:24:51;20.50;82.20
41876;DHT22;27555;50.808;4.402;2023-06-14T02:27:17;20.60;82.10
41876;DHT22;27555;50.808;4.402;2023-06-14T02:29:43;20.50;82.30
41876;DHT22;27555;50.808;4.402;2023-06-14T02:32:09;20.50;82.70
41876;DHT22;27555;50.808;4.402;2023-06-14T02:34:35;20.50;82.50
41876;DHT22;27555;50.808;4.402;2023-06-14T02:37:01;20.40;82.90
41876;DHT22;27555;50.808;4.402;2023-06-14T02:39:28;20.40;82.90
41876;DHT22;27555;50.808;4.402;2023-06-14T02:41:54;20.30;82.80
41876;DHT22;27555;50.808;4.402;2023-06-14T02:44:24;20.20;82.80
41876;DHT22;27555;50.808;4.402;2023-06-14T02:46:51;20.20;82.10
41876;DHT22;27555;50.808;4.402;2023-06-14T02:49:16;20.30;81.60
41876;DHT22;27555;50.808;4.402;2023-06-14T02:51:42;20.20;80.90
41876;DHT22;27555;50.808;4.402;2023-06-14T02:54:07;20.20;80.00
41876;DHT22;27555;50.808;4.402;2023-06-14T02:56:33;20.20;79.90
41876;DHT22;27555;50.808;4.402;2023-06-14T02:58:59;20.10;80.10
41876;DHT22;27555;50.808;4.402;2023-06-14T03:01:26;20.00;80.50
41876;DHT22;27555;50.808;4.402;2023-06-14T03:04:01;20.10;80.00
41876;DHT22;27555;50.808;4.402;2023-06-14T03:06:28;20.10;79.80
41876;DHT22;27555;50.808;4.402;2023-06-14T03:08:55;20.10;79.80
41876;DHT22;27555;50.808;4.402;2023-06-14T03:11:24;20.00;79.90
41876;DHT22;27555;50.808;4.402;2023-06-14T03:13:50;20.00;79.90
41876;DHT22;27555;50.808;4.402;2023-06-14T03:16:17;20.10;79.80
41876;DHT22;27555;50.808;4.402;2023-06-14T03:18:45;20.10;79.90
41876;DHT22;27555;50.808;4.402;2023-06-14T03:21:11;20.00;80.00
41876;DHT22;27555;50.808;4.402;2023-06-14T03:23:36;19.90;80.30
41876;DHT22;27555;50.808;4.402;2023-06-14T03:26:02;19.90;80.60
41876;DHT22;27555;50.808;4.402;2023-06-14T03:28:27;19.80;80.60
41876;DHT22;27555;50.808;4.402;2023-06-14T03:30:53;19.80;80.80
41876;DHT22;27555;50.808;4.402;2023-06-14T03:33:19;19.80;80.70
41876;DHT22;27555;50.808;4.402;2023-06-14T03:35:45;19.90;80.00
41876;DHT22;27555;50.808;4.402;2023-06-14T03:38:10;19.80;80.90
41876;DHT22;27555;50.808;4.402;2023-06-14T03:40:36;19.90;80.30
41876;DHT22;27555;50.808;4.402;2023-06-14T03:43:01;19.90;80.40
41876;DHT22;27555;50.808;4.402;2023-06-14T03:45:27;19.80;80.50
41876;DHT22;27555;50.808;4.402;2023-06-14T03:47:53;19.80;80.60
41876;DHT22;27555;50.808;4.402;2023-06-14T03:50:20;19.80;80.60
41876;DHT22;27555;50.808;4.402;2023-06-14T03:52:50;19.80;80.60
41876;DHT22;27555;50.808;4.402;2023-06-14T03:55:16;19.80;80.60
41876;DHT22;27555;50.808;4.402;2023-06-14T03:57:41;19.80;80.80
41876;DHT22;27555;50.808;4.402;2023-06-14T04:00:09;19.70;80.90
41876;DHT22;27555;50.808;4.402;2023-06-14T04:02:35;19.60;81.20
41876;DHT22;27555;50.808;4.402;2023-06-14T04:05:02;19.60;81.20
41876;DHT22;27555;50.808;4.402;2023-06-14T04:07:28;19.40;81.70
41876;DHT22;27555;50.808;4.402;2023-06-14T04:09:55;19.30;82.40
41876;DHT22;27555;50.808;4.402;2023-06-14T04:12:21;19.40;82.50
41876;DHT22;27555;50.808;4.402;2023-06-14T04:14:46;19.60;82.30
41876;DHT22;27555;50.808;4.402;2023-06-14T04:17:12;19.30;83.10
41876;DHT22;27555;50.808;4.402;2023-06-14T04:19:37;19.20;83.60
41876;DHT22;27555;50.808;4.402;2023-06-14T04:22:03;19.40;83.70
41876;DHT22;27555;50.808;4.402;2023-06-14T04:24:29;19.50;83.30
41876;DHT22;27555;50.808;4.402;2023-06-14T04:27:00;19.40;83.40
41876;DHT22;27555;50.808;4.402;2023-06-14T04:29:26;19.20;83.60
41876;DHT22;27555;50.808;4.402;2023-06-14T04:31:54;19.30;84.30
41876;DHT22;27555;50.808;4.402;2023-06-14T04:34:20;19.50;83.50
41876;DHT22;27555;50.808;4.402;2023-06-14T04:36:47;19.60;83.00
41876;DHT22;27555;50.808;4.402;2023-06-14T04:39:22;19.60;82.90
41876;DHT22;27555;50.808;4.402;2023-06-14T04:41:48;19.60;83.00
41876;DHT22;27555;50.808;4.402;2023-06-14T04:44:18;19.70;82.80
41876;DHT22;27555;50.808;4.402;2023-06-14T04:46:47;19.80;82.70
41876;DHT22;27555;50.808;4.402;2023-06-14T04:49:17;19.70;83.00
41876;DHT22;27555;50.808;4.402;2023-06-14T04:51:44;19.60;83.00
41876;DHT22;27555;50.808;4.402;2023-06-14T04:54:10;19.90;82.60
41876;DHT22;27555;50.808;4.402;2023-06-14T04:56:38;19.90;82.50
41876;DHT22;27555;50.808;4.402;2023-06-14T04:59:03;19.90;82.60
41876;DHT22;27555;50.808;4.402;2023-06-14T05:01:33;19.90;82.50
41876;DHT22;27555;50.808;4.402;2023-06-14T05:03:59;20.00;82.30
41876;DHT22;27555;50.808;4.402;2023-06-14T05:06:25;20.00;82.10
41876;DHT22;27555;50.808;4.402;2023-06-14T05:08:53;20.00;82.10
41876;DHT22;27555;50.808;4.402;2023-06-14T05:11:19;20.00;82.10
41876;DHT22;27555;50.808;4.402;2023-06-14T05:13:44;20.00;81.90
41876;DHT22;27555;50.808;4.402;2023-06-14T05:16:11;20.20;81.50
41876;DHT22;27555;50.808;4.402;2023-06-14T05:18:37;20.00;81.90
41876;DHT22;27555;50.808;4.402;2023-06-14T05:21:03;20.10;81.60
41876;DHT22;27555;50.808;4.402;2023-06-14T05:23:32;20.20;81.70
41876;DHT22;27555;50.808;4.402;2023-06-14T05:25:57;20.10;81.30
41876;DHT22;27555;50.808;4.402;2023-06-14T05:28:24;20.20;81.60
41876;DHT22;27555;50.808;4.402;2023-06-14T05:30:51;20.30;81.50
41876;DHT22;27555;50.808;4.402;2023-06-14T05:33:17;20.30;81.10
41876;DHT22;27555;50.808;4.402;2023-06-14T05:35:42;20.30;81.20
41876;DHT22;27555;50.808;4.402;2023-06-14T05:38:08;20.20;81.20
41876;DHT22;27555;50.808;4.402;2023-06-14T05:40:34;20.40;80.60
41876;DHT22;27555;50.808;4.402;2023-06-14T05:43:00;20.60;79.80
41876;DHT22;27555;50.808;4.402;2023-06-14T05:45:25;20.60;79.00
41876;DHT22;27555;50.808;4.402;2023-06-14T05:47:51;20.60;79.20
41876;DHT22;27555;50.808;4.402;2023-06-14T05:50:17;20.60;78.80
41876;DHT22;27555;50.808;4.402;2023-06-14T05:52:43;20.60;78.70
41876;DHT22;27555;50.808;4.402;2023-06-14T05:55:09;20.60;79.00
41876;DHT22;27555;50.808;4.402;2023-06-14T05:57:38;20.70;78.70
41876;DHT22;27555;50.808;4.402;2023-06-14T06:00:04;20.70;78.90
41876;DHT22;27555;50.808;4.402;2023-06-14T06:02:36;20.80;79.00
41876;DHT22;27555;50.808;4.402;2023-06-14T06:05:02;20.60;79.10
41876;DHT22;27555;50.808;4.402;2023-06-14T06:07:28;20.50;79.20
41876;DHT22;27555;50.808;4.402;2023-06-14T06:09:53;20.50;79.20
41876;DHT22;27555;50.808;4.402;2023-06-14T06:12:19;20.50;79.20
41876;DHT22;27555;50.808;4.402;2023-06-14T06:14:45;20.50;79.40
41876;DHT22;27555;50.808;4.402;2023-06-14T06:17:10;20.80;79.00
41876;DHT22;27555;50.808;4.402;2023-06-14T06:19:36;21.00;78.60
41876;DHT22;27555;50.808;4.402;2023-06-14T06:22:02;21.20;78.10
41876;DHT22;27555;50.808;4.402;2023-06-14T06:24:27;21.50;77.30
41876;DHT22;27555;50.808;4.402;2023-06-14T06:26:54;21.50;77.60
41876;DHT22;27555;50.808;4.402;2023-06-14T06:29:20;21.60;77.60
41876;DHT22;27555;50.808;4.402;2023-06-14T06:31:46;21.80;76.40
41876;DHT22;27555;50.808;4.402;2023-06-14T06:34:12;21.90;76.50
41876;DHT22;27555;50.808;4.402;2023-06-14T06:36:40;22.10;75.90
41876;DHT22;27555;50.808;4.402;2023-06-14T06:39:05;22.80;75.30
41876;DHT22;27555;50.808;4.402;2023-06-14T06:41:38;23.80;73.40
41876;DHT22;27555;50.808;4.402;2023-06-14T06:44:05;24.70;72.50
41876;DHT22;27555;50.808;4.402;2023-06-14T06:46:32;25.60;70.90
41876;DHT22;27555;50.808;4.402;2023-06-14T06:48:58;26.50;69.80
41876;DHT22;27555;50.808;4.402;2023-06-14T06:51:23;26.70;68.60
41876;DHT22;27555;50.808;4.402;2023-06-14T06:53:55;27.60;68.10
41876;DHT22;27555;50.808;4.402;2023-06-14T06:56:21;28.40;66.30
41876;DHT22;27555;50.808;4.402;2023-06-14T06:58:50;29.00;65.60
41876;DHT22;27555;50.808;4.402;2023-06-14T07:01:16;29.40;65.40
41876;DHT22;27555;50.808;4.402;2023-06-14T07:03:42;29.70;64.70
41876;DHT22;27555;50.808;4.402;2023-06-14T07:06:08;30.10;63.60
41876;DHT22;27555;50.808;4.402;2023-06-14T07:08:34;30.10;63.40
41876;DHT22;27555;50.808;4.402;2023-06-14T07:10:59;29.60;63.30
41876;DHT22;27555;50.808;4.402;2023-06-14T07:13:25;30.00;63.40
41876;DHT22;27555;50.808;4.402;2023-06-14T07:15:53;29.70;63.10
41876;DHT22;27555;50.808;4.402;2023-06-14T07:18:19;29.60;63.30
41876;DHT22;27555;50.808;4.402;2023-06-14T07:20:45;29.80;64.00
41876;DHT22;27555;50.808;4.402;2023-06-14T07:23:12;30.60;63.20
41876;DHT22;27555;50.808;4.402;2023-06-14T07:25:38;31.20;62.20
41876;DHT22;27555;50.808;4.402;2023-06-14T07:28:03;30.60;62.30
41876;DHT22;27555;50.808;4.402;2023-06-14T07:30:29;30.40;62.70
41876;DHT22;27555;50.808;4.402;2023-06-14T07:32:57;30.80;62.20
41876;DHT22;27555;50.808;4.402;2023-06-14T07:35:22;31.50;61.70
41876;DHT22;27555;50.808;4.402;2023-06-14T07:37:48;31.60;60.80
41876;DHT22;27555;50.808;4.402;2023-06-14T07:40:15;32.00;61.10
41876;DHT22;27555;50.808;4.402;2023-06-14T07:42:41;32.60;60.80
41876;DHT22;27555;50.808;4.402;2023-06-14T07:45:07;33.20;60.90
41876;DHT22;27555;50.808;4.402;2023-06-14T07:47:33;33.40;59.50
41876;DHT22;27555;50.808;4.402;2023-06-14T07:49:59;33.30;59.60
41876;DHT22;27555;50.808;4.402;2023-06-14T07:52:25;33.40;59.40
41876;DHT22;27555;50.808;4.402;2023-06-14T07:54:51;33.20;59.70
41876;DHT22;27555;50.808;4.402;2023-06-14T07:57:17;33.00;60.00
41876;DHT22;27555;50.808;4.402;2023-06-14T07:59:42;33.50;59.90
41876;DHT22;27555;50.808;4.402;2023-06-14T08:02:08;34.20;59.40
41876;DHT22;27555;50.808;4.402;2023-06-14T08:04:33;34.60;58.90
41876;DHT22;27555;50.808;4.402;2023-06-14T08:07:00;35.00;58.70
41876;DHT22;27555;50.808;4.402;2023-06-14T08:09:26;35.50;58.20
41876;DHT22;27555;50.808;4.402;2023-06-14T08:11:54;35.30;57.80
41876;DHT22;27555;50.808;4.402;2023-06-14T08:14:19;35.40;57.40
41876;DHT22;27555;50.808;4.402;2023-06-14T08:16:45;35.60;57.00
41876;DHT22;27555;50.808;4.402;2023-06-14T08:19:10;35.10;56.90
41876;DHT22;27555;50.808;4.402;2023-06-14T08:21:36;34.90;57.50
41876;DHT22;27555;50.808;4.402;2023-06-14T08:24:02;35.40;57.10
41876;DHT22;27555;50.808;4.402;2023-06-14T08:26:27;35.90;56.60
41876;DHT22;27555;50.808;4.402;2023-06-14T08:28:57;35.70;56.40
41876;DHT22;27555;50.808;4.402;2023-06-14T08:31:23;35.00;57.10
41876;DHT22;27555;50.808;4.402;2023-06-14T08:33:49;35.50;56.90
41876;DHT22;27555;50.808;4.402;2023-06-14T08:36:15;35.30;57.10
41876;DHT22;27555;50.808;4.402;2023-06-14T08:38:41;35.40;57.50
41876;DHT22;27555;50.808;4.402;2023-06-14T08:41:08;35.70;58.20
41876;DHT22;27555;50.808;4.402;2023-06-14T08:43:36;36.10;57.90
41876;DHT22;27555;50.808;4.402;2023-06-14T08:46:03;35.60;57.30
41876;DHT22;27555;50.808;4.402;2023-06-14T08:48:30;35.30;57.80
41876;DHT22;27555;50.808;4.402;2023-06-14T08:51:02;35.30;57.70
41876;DHT22;27555;50.808;4.402;2023-06-14T08:53:31;34.90;57.40
41876;DHT22;27555;50.808;4.402;2023-06-14T08:55:58;35.20;57.40
41876;DHT22;27555;50.808;4.402;2023-06-14T08:58:27;35.70;57.20
41876;DHT22;27555;50.808;4.402;2023-06-14T09:00:55;35.40;57.70
41876;DHT22;27555;50.808;4.402;2023-06-14T09:03:21;35.80;58.20
41876;DHT22;27555;50.808;4.402;2023-06-14T09:05:48;36.10;57.90
41876;DHT22;27555;50.808;4.402;2023-06-14T09:08:16;36.70;57.40
41876;DHT22;27555;50.808;4.402;2023-06-14T09:10:44;36.70;56.90
41876;DHT22;27555;50.808;4.402;2023-06-14T09:13:10;36.00;57.10
41876;DHT22;27555;50.808;4.402;2023-06-14T09:15:35;35.60;57.70
41876;DHT22;27555;50.808;4.402;2023-06-14T09:18:02;35.00;58.10
41876;DHT22;27555;50.808;4.402;2023-06-14T09:20:29;34.60;58.10
41876;DHT22;27555;50.808;4.402;2023-06-14T09:22:55;34.90;58.50
41876;DHT22;27555;50.808;4.402;2023-06-14T09:25:21;35.10;57.40
41876;DHT22;27555;50.808;4.402;2023-06-14T09:27:47;35.40;57.00
41876;DHT22;27555;50.808;4.402;2023-06-14T09:30:13;35.10;57.20
41876;DHT22;27555;50.808;4.402;2023-06-14T09:32:40;35.30;57.30
41876;DHT22;27555;50.808;4.402;2023-06-14T09:35:07;35.00;56.90
41876;DHT22;27555;50.808;4.402;2023-06-14T09:37:33;35.10;57.10
41876;DHT22;27555;50.808;4.402;2023-06-14T09:40:00;35.30;56.10
41876;DHT22;27555;50.808;4.402;2023-06-14T09:42:26;35.50;56.00
41876;DHT22;27555;50.808;4.402;2023-06-14T09:44:54;35.70;56.90
41876;DHT22;27555;50.808;4.402;2023-06-14T09:47:20;36.10;56.30
41876;DHT22;27555;50.808;4.402;2023-06-14T09:49:46;36.20;56.80
41876;DHT22;27555;50.808;4.402;2023-06-14T09:52:17;36.50;56.70
41876;DHT22;27555;50.808;4.402;2023-06-14T09:54:44;36.50;56.10
41876;DHT22;27555;50.808;4.402;2023-06-14T09:57:22;36.10;56.10
41876;DHT22;27555;50.808;4.402;2023-06-14T09:59:53;35.00;57.30
41876;DHT22;27555;50.808;4.402;2023-06-14T10:02:29;35.40;56.90
41876;DHT22;27555;50.808;4.402;2023-06-14T10:05:06;35.80;57.70
41876;DHT22;27555;50.808;4.402;2023-06-14T10:07:48;35.50;57.30
41876;DHT22;27555;50.808;4.402;2023-06-14T10:10:14;35.90;57.30
41876;DHT22;27555;50.808;4.402;2023-06-14T10:12:40;35.20;57.20
41876;DHT22;27555;50.808;4.402;2023-06-14T10:15:09;34.80;56.90
41876;DHT22;27555;50.808;4.402;2023-06-14T10:21:16;35.90;57.30
41876;DHT22;27555;50.808;4.402;2023-06-14T10:23:21;36.10;55.90
41876;DHT22;27555;50.808;4.402;2023-06-14T10:25:54;36.60;55.90
41876;DHT22;27555;50.808;4.402;2023-06-14T10:28:21;36.90;55.30
41876;DHT22;27555;50.808;4.402;2023-06-14T10:31:04;36.90;54.70
41876;DHT22;27555;50.808;4.402;2023-06-14T10:33:30;36.40;54.30
41876;DHT22;27555;50.808;4.402;2023-06-14T10:36:30;36.50;54.40
41876;DHT22;27555;50.808;4.402;2023-06-14T10:39:16;37.10;53.10
41876;DHT22;27555;50.808;4.402;2023-06-14T10:41:51;36.30;52.80
41876;DHT22;27555;50.808;4.402;2023-06-14T10:46:49;36.20;53.50
41876;DHT22;27555;50.808;4.402;2023-06-14T10:49:18;37.00;53.20
41876;DHT22;27555;50.808;4.402;2023-06-14T10:51:51;37.00;52.20
41876;DHT22;27555;50.808;4.402;2023-06-14T10:54:20;36.60;52.10
41876;DHT22;27555;50.808;4.402;2023-06-14T10:56:47;35.50;52.90
41876;DHT22;27555;50.808;4.402;2023-06-14T10:59:14;35.30;52.60
41876;DHT22;27555;50.808;4.402;2023-06-14T11:04:14;35.80;51.90
41876;DHT22;27555;50.808;4.402;2023-06-14T11:06:49;36.00;51.50
41876;DHT22;27555;50.808;4.402;2023-06-14T11:12:13;35.40;53.10
41876;DHT22;27555;50.808;4.402;2023-06-14T11:14:40;35.40;52.30
41876;DHT22;27555;50.808;4.402;2023-06-14T11:17:06;35.70;52.80
41876;DHT22;27555;50.808;4.402;2023-06-14T11:19:32;35.70;52.80
41876;DHT22;27555;50.808;4.402;2023-06-14T11:21:57;35.60;52.70
41876;DHT22;27555;50.808;4.402;2023-06-14T11:24:24;36.00;53.10
41876;DHT22;27555;50.808;4.402;2023-06-14T11:26:50;35.80;53.20
41876;DHT22;27555;50.808;4.402;2023-06-14T11:29:16;35.80;53.40
41876;DHT22;27555;50.808;4.402;2023-06-14T11:31:46;35.90;52.60
41876;DHT22;27555;50.808;4.402;2023-06-14T11:34:12;35.30;52.70
41876;DHT22;27555;50.808;4.402;2023-06-14T11:36:38;35.10;52.70
41876;DHT22;27555;50.808;4.402;2023-06-14T11:39:07;35.40;52.80
41876;DHT22;27555;50.808;4.402;2023-06-14T11:41:42;35.80;52.80
41876;DHT22;27555;50.808;4.402;2023-06-14T11:44:08;35.70;52.60
41876;DHT22;27555;50.808;4.402;2023-06-14T11:46:34;35.30;53.70
41876;DHT22;27555;50.808;4.402;2023-06-14T11:49:00;35.80;53.40
41876;DHT22;27555;50.808;4.402;2023-06-14T11:51:29;36.00;53.40
41876;DHT22;27555;50.808;4.402;2023-06-14T11:53:55;35.40;53.50
41876;DHT22;27555;50.808;4.402;2023-06-14T11:56:21;35.00;54.70
41876;DHT22;27555;50.808;4.402;2023-06-14T11:58:46;34.70;54.00
41876;DHT22;27555;50.808;4.402;2023-06-14T12:01:18;34.50;53.20
41876;DHT22;27555;50.808;4.402;2023-06-14T12:03:48;34.30;53.60
41876;DHT22;27555;50.808;4.402;2023-06-14T12:06:14;34.10;53.60
41876;DHT22;27555;50.808;4.402;2023-06-14T12:08:40;34.10;54.30
41876;DHT22;27555;50.808;4.402;2023-06-14T12:11:14;33.80;54.30
41876;DHT22;27555;50.808;4.402;2023-06-14T12:13:41;33.30;54.60
41876;DHT22;27555;50.808;4.402;2023-06-14T12:16:11;32.40;55.30
41876;DHT22;27555;50.808;4.402;2023-06-14T12:18:38;31.90;56.10
41876;DHT22;27555;50.808;4.402;2023-06-14T12:21:08;31.60;55.60
41876;DHT22;27555;50.808;4.402;2023-06-14T12:23:43;31.30;55.40
41876;DHT22;27555;50.808;4.402;2023-06-14T12:26:15;31.10;55.30
41876;DHT22;27555;50.808;4.402;2023-06-14T12:28:42;31.00;55.60
41876;DHT22;27555;50.808;4.402;2023-06-14T12:31:15;30.70;56.00
41876;DHT22;27555;50.808;4.402;2023-06-14T12:33:41;30.40;56.50
41876;DHT22;27555;50.808;4.402;2023-06-14T12:36:08;29.90;57.20
41876;DHT22;27555;50.808;4.402;2023-06-14T12:38:35;30.10;56.50
41876;DHT22;27555;50.808;4.402;2023-06-14T12:41:01;30.10;56.50
41876;DHT22;27555;50.808;4.402;2023-06-14T12:43:27;30.30;57.00
41876;DHT22;27555;50.808;4.402;2023-06-14T12:45:53;30.00;57.30
41876;DHT22;27555;50.808;4.402;2023-06-14T12:48:18;29.90;56.90
41876;DHT22;27555;50.808;4.402;2023-06-14T12:50:44;29.70;56.80
41876;DHT22;27555;50.808;4.402;2023-06-14T12:53:10;29.60;56.90
41876;DHT22;27555;50.808;4.402;2023-06-14T12:55:36;29.60;57.90
41876;DHT22;27555;50.808;4.402;2023-06-14T12:58:01;29.10;58.60
41876;DHT22;27555;50.808;4.402;2023-06-14T13:00:27;29.10;58.40
41876;DHT22;27555;50.808;4.402;2023-06-14T13:02:53;29.10;57.70
41876;DHT22;27555;50.808;4.402;2023-06-14T13:05:18;29.10;58.30
41876;DHT22;27555;50.808;4.402;2023-06-14T13:07:44;29.10;58.00
41876;DHT22;27555;50.808;4.402;2023-06-14T13:10:10;29.20;57.10
41876;DHT22;27555;50.808;4.402;2023-06-14T13:12:36;29.30;58.20
41876;DHT22;27555;50.808;4.402;2023-06-14T13:15:02;29.20;56.20
41876;DHT22;27555;50.808;4.402;2023-06-14T13:17:27;29.20;56.90
41876;DHT22;27555;50.808;4.402;2023-06-14T13:19:53;29.40;56.80
41876;DHT22;27555;50.808;4.402;2023-06-14T13:22:19;29.30;56.90
41876;DHT22;27555;50.808;4.402;2023-06-14T13:24:48;29.30;57.10
41876;DHT22;27555;50.808;4.402;2023-06-14T13:27:15;29.10;57.30
41876;DHT22;27555;50.808;4.402;2023-06-14T13:29:40;29.20;57.30
41876;DHT22;27555;50.808;4.402;2023-06-14T13:32:06;29.30;57.10
41876;DHT22;27555;50.808;4.402;2023-06-14T13:34:32;29.40;57.20
41876;DHT22;27555;50.808;4.402;2023-06-14T13:36:57;29.60;57.10
41876;DHT22;27555;50.808;4.402;2023-06-14T13:39:25;29.40;57.60
41876;DHT22;27555;50.808;4.402;2023-06-14T13:41:50;29.40;57.70
41876;DHT22;27555;50.808;4.402;2023-06-14T13:44:16;29.50;57.50
41876;DHT22;27555;50.808;4.402;2023-06-14T13:46:44;29.20;57.30
41876;DHT22;27555;50.808;4.402;2023-06-14T13:49:10;28.90;57.40
41876;DHT22;27555;50.808;4.402;2023-06-14T13:51:36;29.00;57.40
41876;DHT22;27555;50.808;4.402;2023-06-14T13:54:03;28.80;57.90
41876;DHT22;27555;50.808;4.402;2023-06-14T13:56:28;28.80;56.50
41876;DHT22;27555;50.808;4.402;2023-06-14T13:58:55;28.80;56.40
41876;DHT22;27555;50.808;4.402;2023-06-14T14:01:21;28.70;56.60
41876;DHT22;27555;50.808;4.402;2023-06-14T14:03:48;28.60;56.80
41876;DHT22;27555;50.808;4.402;2023-06-14T14:06:15;28.60;56.30
41876;DHT22;27555;50.808;4.402;2023-06-14T14:08:42;28.50;56.10
41876;DHT22;27555;50.808;4.402;2023-06-14T14:11:08;28.40;56.20
41876;DHT22;27555;50.808;4.402;2023-06-14T14:13:34;28.40;56.70
41876;DHT22;27555;50.808;4.402;2023-06-14T14:16:02;28.80;56.40
41876;DHT22;27555;50.808;4.402;2023-06-14T14:18:28;28.70;56.50
41876;DHT22;27555;50.808;4.402;2023-06-14T14:20:54;28.90;55.90
41876;DHT22;27555;50.808;4.402;2023-06-14T14:23:21;29.00;55.80
41876;DHT22;27555;50.808;4.402;2023-06-14T14:25:47;29.00;55.30
41876;DHT22;27555;50.808;4.402;2023-06-14T14:28:12;29.10;55.80
41876;DHT22;27555;50.808;4.402;2023-06-14T14:30:41;28.80;55.90
41876;DHT22;27555;50.808;4.402;2023-06-14T14:33:07;28.80;54.90
41876;DHT22;27555;50.808;4.402;2023-06-14T14:35:33;29.00;54.90
41876;DHT22;27555;50.808;4.402;2023-06-14T14:37:58;28.70;55.10
41876;DHT22;27555;50.808;4.402;2023-06-14T14:40:24;28.90;54.80
41876;DHT22;27555;50.808;4.402;2023-06-14T14:42:50;29.10;55.50
41876;DHT22;27555;50.808;4.402;2023-06-14T14:45:16;29.00;55.50
41876;DHT22;27555;50.808;4.402;2023-06-14T14:47:41;29.10;55.30
41876;DHT22;27555;50.808;4.402;2023-06-14T14:50:07;29.10;55.30
41876;DHT22;27555;50.808;4.402;2023-06-14T14:52:36;28.90;55.80
41876;DHT22;27555;50.808;4.402;2023-06-14T14:55:01;28.90;55.70
41876;DHT22;27555;50.808;4.402;2023-06-14T14:57:27;28.80;55.00
41876;DHT22;27555;50.808;4.402;2023-06-14T14:59:55;28.80;55.20
41876;DHT22;27555;50.808;4.402;2023-06-14T15:02:21;28.80;55.30
41876;DHT22;27555;50.808;4.402;2023-06-14T15:04:48;28.90;55.60
41876;DHT22;27555;50.808;4.402;2023-06-14T15:07:13;28.80;55.00
41876;DHT22;27555;50.808;4.402;2023-06-14T15:09:39;28.60;54.90
41876;DHT22;27555;50.808;4.402;2023-06-14T15:12:06;28.50;54.90
41876;DHT22;27555;50.808;4.402;2023-06-14T15:14:32;28.20;55.40
41876;DHT22;27555;50.808;4.402;2023-06-14T15:16:58;28.20;55.50
41876;DHT22;27555;50.808;4.402;2023-06-14T15:19:24;28.30;55.60
41876;DHT22;27555;50.808;4.402;2023-06-14T15:21:49;28.50;55.00
41876;DHT22;27555;50.808;4.402;2023-06-14T15:24:15;28.50;55.10
41876;DHT22;27555;50.808;4.402;2023-06-14T15:26:41;28.50;55.30
41876;DHT22;27555;50.808;4.402;2023-06-14T15:29:06;28.70;55.00
41876;DHT22;27555;50.808;4.402;2023-06-14T15:31:32;28.80;55.10
41876;DHT22;27555;50.808;4.402;2023-06-14T15:33:57;28.60;55.60
41876;DHT22;27555;50.808;4.402;2023-06-14T15:36:24;28.60;55.30
41876;DHT22;27555;50.808;4.402;2023-06-14T15:38:50;28.80;55.40
41876;DHT22;27555;50.808;4.402;2023-06-14T15:41:15;28.80;55.60
41876;DHT22;27555;50.808;4.402;2023-06-14T15:43:41;28.70;55.70
41876;DHT22;27555;50.808;4.402;2023-06-14T15:46:07;28.50;55.80